Time;durP1;ratioP1;P1;durP2;ratioP2;P2;SDS_P1;SDS_P2;PMS_P1;PMS_P2;Temp;Humidity;BMP_temperature;BMP_pressure;BME280_temperature;BME280_humidity;BME280_pressure;Samples;Min_cycle;Max_cycle;Signal;HPM_P1;HPM_P2
2022/11/26 00:00:40;;;;;;;49.42;14.82;;;7.10;99.90;;;;;;5095309;28;20486;-69
2022/11/26 00:03:08;;;;;;;42.88;14.93;;;7.10;99.90;;;;;;5095693;28;20020;-74
2022/11/26 00:05:34;;;;;;;35.80;14.50;;;7.20;99.90;;;;;;5095329;28;20030;-75
2022/11/26 00:08:01;;;;;;;40.28;14.05;;;7.30;99.90;;;;;;5095638;28;20036;-74
2022/11/26 00:10:32;;;;;;;47.08;16.38;;;7.20;99.90;;;;;;5095140;28;20040;-74
2022/11/26 00:12:58;;;;;;;43.60;14.80;;;7.20;99.90;;;;;;5095371;28;20115;-69
2022/11/26 00:15:29;;;;;;;36.90;14.57;;;7.00;99.90;;;;;;5094227;28;20024;-74
2022/11/26 00:17:56;;;;;;;41.80;14.55;;;7.00;99.90;;;;;;5095211;28;20084;-67
2022/11/26 00:20:28;;;;;;;41.00;15.27;;;7.00;99.90;;;;;;5095452;28;20032;-74
2022/11/26 00:23:03;;;;;;;42.38;15.07;;;7.00;99.90;;;;;;5095141;28;20059;-74
2022/11/26 00:25:42;;;;;;;43.25;15.55;;;7.00;99.90;;;;;;5095155;28;20110;-74
2022/11/26 00:28:35;;;;;;;44.35;14.68;;;7.10;99.90;;;;;;5093567;28;20057;-66
2022/11/26 00:31:04;;;;;;;36.08;14.15;;;7.10;99.90;;;;;;5093663;28;20030;-67
2022/11/26 00:33:31;;;;;;;43.75;14.80;;;7.00;99.90;;;;;;5095080;28;20027;-66
2022/11/26 00:36:01;;;;;;;41.30;13.68;;;7.00;99.90;;;;;;5095044;28;20078;-68
2022/11/26 00:38:28;;;;;;;42.10;13.73;;;7.00;99.90;;;;;;5094701;28;20051;-66
2022/11/26 00:40:54;;;;;;;40.05;14.93;;;6.90;99.90;;;;;;5094628;28;20024;-67
2022/11/26 00:43:19;;;;;;;42.08;14.50;;;7.00;99.90;;;;;;5094616;28;20027;-67
2022/11/26 00:45:46;;;;;;;39.00;13.88;;;6.90;99.90;;;;;;5095059;28;20388;-68
2022/11/26 00:48:14;;;;;;;47.75;14.02;;;6.60;99.90;;;;;;5094683;28;20465;-69
2022/11/26 00:50:51;;;;;;;42.22;13.13;;;6.70;99.90;;;;;;5094475;28;20388;-66
2022/11/26 00:53:21;;;;;;;42.50;14.57;;;6.60;99.90;;;;;;5094800;28;20028;-67
2022/11/26 00:55:48;;;;;;;44.20;13.52;;;6.40;99.90;;;;;;5094431;28;20028;-67
2022/11/26 00:58:22;;;;;;;45.65;14.27;;;6.40;99.90;;;;;;5094501;28;20024;-66
2022/11/26 01:00:48;;;;;;;38.40;13.80;;;6.50;99.90;;;;;;5094494;28;20012;-66
2022/11/26 01:03:14;;;;;;;38.90;13.32;;;6.60;99.90;;;;;;5094632;28;20372;-67
2022/11/26 01:05:39;;;;;;;34.83;13.10;;;6.70;99.90;;;;;;5094416;28;20471;-66
2022/11/26 01:08:38;;;;;;;37.63;13.23;;;6.80;99.90;;;;;;5094572;28;20494;-67
2022/11/26 01:11:04;;;;;;;38.15;13.05;;;6.70;99.90;;;;;;5094094;28;20028;-66
2022/11/26 01:13:31;;;;;;;37.95;14.85;;;6.60;99.90;;;;;;5094357;28;20453;-66
2022/11/26 01:15:58;;;;;;;36.38;14.27;;;6.40;99.90;;;;;;5093954;28;20541;-68
2022/11/26 01:18:24;;;;;;;39.10;15.27;;;6.40;99.90;;;;;;5094154;28;20067;-67
2022/11/26 01:20:50;;;;;;;37.78;13.15;;;6.60;99.90;;;;;;5094187;28;20023;-70
2022/11/26 01:23:18;;;;;;;43.80;13.98;;;6.40;99.90;;;;;;5093888;28;20036;-66
2022/11/26 01:25:45;;;;;;;44.58;14.80;;;6.40;99.90;;;;;;5094146;28;20024;-68
2022/11/26 01:28:17;;;;;;;40.88;14.73;;;6.40;99.90;;;;;;5093709;28;20078;-69
2022/11/26 01:30:44;;;;;;;32.55;13.70;;;6.50;99.90;;;;;;5094362;28;20407;-68
2022/11/26 01:33:10;;;;;;;42.65;13.73;;;6.50;99.90;;;;;;5093798;28;20056;-67
2022/11/26 01:35:35;;;;;;;42.83;13.68;;;6.50;99.90;;;;;;5093978;28;20043;-67
2022/11/26 01:38:02;;;;;;;47.33;13.90;;;6.60;99.90;;;;;;5093113;28;20119;-66
2022/11/26 01:40:37;;;;;;;42.63;13.52;;;6.60;99.90;;;;;;5093747;28;20028;-66
2022/11/26 01:43:34;;;;;;;43.83;13.05;;;6.50;99.90;;;;;;5093804;28;20495;-66
2022/11/26 01:46:00;;;;;;;45.92;13.93;;;6.40;99.90;;;;;;5093799;28;20059;-67
2022/11/26 01:48:30;;;;;;;44.13;12.70;;;6.40;99.90;;;;;;5093294;28;20064;-69
2022/11/26 01:51:01;;;;;;;35.20;12.50;;;6.50;99.90;;;;;;5093687;28;20035;-67
2022/11/26 01:53:32;;;;;;;37.22;12.40;;;6.40;99.90;;;;;;5093475;28;20043;-66
2022/11/26 01:56:12;;;;;;;38.30;13.90;;;6.50;99.90;;;;;;5093794;28;20043;-66
2022/11/26 01:58:41;;;;;;;36.03;12.18;;;6.30;99.90;;;;;;5093138;28;20541;-66
2022/11/26 02:01:08;;;;;;;38.85;12.77;;;6.20;99.90;;;;;;5084542;28;20016;-72
2022/11/26 02:03:51;;;;;;;45.38;15.50;;;6.30;99.90;;;;;;5093313;28;20028;-67
2022/11/26 02:06:21;;;;;;;38.33;12.95;;;6.30;99.90;;;;;;5093456;28;20051;-66
2022/11/26 02:08:47;;;;;;;48.53;14.50;;;6.20;99.90;;;;;;5092871;28;20043;-67
2022/11/26 02:11:20;;;;;;;43.60;13.73;;;6.30;99.90;;;;;;5092148;28;20032;-67
2022/11/26 02:13:48;;;;;;;40.63;12.80;;;6.30;99.90;;;;;;5093179;28;20523;-67
2022/11/26 02:16:59;;;;;;;44.67;13.02;;;6.30;99.90;;;;;;5093337;28;20469;-67
2022/11/26 02:19:52;;;;;;;46.67;14.13;;;6.40;99.90;;;;;;5070350;28;20102;-66
2022/11/26 02:22:43;;;;;;;44.15;14.23;;;6.70;99.90;;;;;;5053763;28;20029;-67
2022/11/26 02:25:26;;;;;;;44.55;13.48;;;6.60;99.90;;;;;;5088902;28;20508;-66
2022/11/26 02:28:16;;;;;;;37.22;12.50;;;6.60;99.90;;;;;;5091780;28;20027;-66
2022/11/26 02:30:46;;;;;;;44.67;12.98;;;6.50;99.90;;;;;;5093077;28;20028;-66
2022/11/26 02:33:28;;;;;;;49.53;13.70;;;6.50;99.90;;;;;;5093243;28;20071;-67
2022/11/26 02:36:08;;;;;;;50.40;13.98;;;6.40;99.90;;;;;;5093150;28;20384;-67
2022/11/26 02:38:36;;;;;;;39.35;13.10;;;6.50;99.90;;;;;;5092363;28;20093;-66
2022/11/26 02:41:03;;;;;;;41.55;12.95;;;6.50;99.90;;;;;;5092712;28;20028;-70
2022/11/26 02:43:29;;;;;;;48.92;13.93;;;6.50;99.90;;;;;;5092915;28;20487;-68
2022/11/26 02:46:00;;;;;;;38.30;12.90;;;6.40;99.90;;;;;;5091638;28;20028;-67
2022/11/26 02:48:30;;;;;;;39.25;12.02;;;6.60;99.90;;;;;;5092736;28;20396;-70
2022/11/26 02:51:22;;;;;;;51.08;13.30;;;6.50;99.90;;;;;;5092412;28;20028;-75
2022/11/26 02:53:50;;;;;;;38.53;12.02;;;6.60;99.90;;;;;;5091258;28;20036;-74
2022/11/26 02:56:23;;;;;;;45.55;12.88;;;6.50;99.90;;;;;;5092832;28;20499;-75
2022/11/26 02:58:51;;;;;;;39.20;12.18;;;6.40;99.90;;;;;;5092576;28;20043;-67
2022/11/26 03:01:51;;;;;;;39.97;12.05;;;6.40;99.90;;;;;;5084348;28;20366;-66
2022/11/26 03:04:23;;;;;;;37.50;12.80;;;6.40;99.90;;;;;;5069270;28;20068;-73
2022/11/26 03:06:50;;;;;;;39.08;12.65;;;6.40;99.90;;;;;;5074439;28;20440;-71
2022/11/26 03:09:16;;;;;;;42.63;12.70;;;6.30;99.90;;;;;;5092412;28;20469;-75
2022/11/26 03:11:43;;;;;;;49.10;12.73;;;6.10;99.90;;;;;;5092467;28;20020;-75
2022/11/26 03:14:09;;;;;;;42.70;12.52;;;6.10;99.90;;;;;;5092613;28;20122;-74
2022/11/26 03:16:35;;;;;;;43.85;13.02;;;6.10;99.90;;;;;;5092628;28;20028;-75
2022/11/26 03:19:01;;;;;;;46.60;12.27;;;6.10;99.90;;;;;;5091588;28;20094;-68
2022/11/26 03:21:26;;;;;;;37.38;11.57;;;6.30;99.90;;;;;;5095606;28;20060;-66
2022/11/26 03:23:52;;;;;;;34.13;11.10;;;6.10;99.90;;;;;;5096286;28;20030;-66
2022/11/26 03:26:18;;;;;;;39.15;11.00;;;6.30;99.90;;;;;;5096432;28;20495;-67
2022/11/26 03:28:44;;;;;;;45.25;12.02;;;6.10;99.90;;;;;;5096122;28;20036;-69
2022/11/26 03:31:09;;;;;;;42.08;12.60;;;6.00;99.90;;;;;;5096085;28;20027;-66
2022/11/26 03:33:35;;;;;;;43.50;12.38;;;6.00;99.90;;;;;;5096044;28;20054;-75
2022/11/26 03:36:01;;;;;;;44.22;13.65;;;6.00;99.90;;;;;;5095974;28;20020;-75
2022/11/26 03:38:27;;;;;;;33.08;11.18;;;6.20;99.90;;;;;;5095863;28;20474;-74
2022/11/26 03:40:57;;;;;;;41.88;12.90;;;6.10;99.90;;;;;;5096017;28;20103;-67
2022/11/26 03:43:23;;;;;;;47.33;13.10;;;6.00;99.90;;;;;;5096084;28;20063;-75
2022/11/26 03:45:49;;;;;;;38.20;13.13;;;6.10;99.90;;;;;;5095809;28;20059;-74
2022/11/26 03:48:15;;;;;;;50.38;11.90;;;6.10;99.90;;;;;;5095581;28;20032;-75
2022/11/26 03:50:40;;;;;;;61.97;14.77;;;6.10;99.90;;;;;;5095953;28;20077;-74
2022/11/26 03:53:06;;;;;;;44.40;12.77;;;6.00;99.90;;;;;;5095810;28;20043;-75
2022/11/26 03:55:32;;;;;;;49.65;13.88;;;6.20;99.90;;;;;;5095798;28;20020;-75
2022/11/26 03:57:58;;;;;;;38.47;12.90;;;6.20;99.90;;;;;;5095302;28;20032;-75
2022/11/26 04:00:23;;;;;;;56.05;13.60;;;6.00;99.90;;;;;;5095698;28;20099;-75
2022/11/26 04:02:49;;;;;;;37.20;11.30;;;6.00;99.90;;;;;;5095490;28;20164;-75
2022/11/26 04:05:15;;;;;;;47.90;11.82;;;6.00;99.90;;;;;;5095573;28;20039;-75
2022/11/26 04:07:40;;;;;;;46.20;11.88;;;6.30;99.90;;;;;;5095411;28;20032;-74
2022/11/26 04:10:07;;;;;;;44.15;11.73;;;6.10;99.90;;;;;;5095350;28;20434;-75
2022/11/26 04:12:33;;;;;;;44.28;12.13;;;6.20;99.90;;;;;;5095430;28;20020;-74
2022/11/26 04:14:58;;;;;;;49.50;13.38;;;6.30;99.90;;;;;;5095430;28;20395;-74
2022/11/26 04:17:25;;;;;;;43.50;11.52;;;6.20;99.90;;;;;;5095008;28;20024;-66
2022/11/26 04:19:51;;;;;;;33.42;11.27;;;6.30;99.90;;;;;;5092912;28;20032;-70
2022/11/26 04:22:16;;;;;;;43.67;11.70;;;6.20;99.90;;;;;;5094584;28;20384;-72
2022/11/26 04:24:42;;;;;;;49.83;11.43;;;6.30;99.90;;;;;;5085925;28;20448;-69
2022/11/26 04:27:08;;;;;;;36.97;11.75;;;6.50;99.90;;;;;;5090580;28;20027;-68
2022/11/26 04:29:35;;;;;;;41.95;10.57;;;6.50;99.90;;;;;;5095067;28;20054;-67
2022/11/26 04:32:01;;;;;;;51.28;10.93;;;6.70;99.90;;;;;;5094319;28;20445;-74
2022/11/26 04:34:26;;;;;;;51.63;11.10;;;6.40;99.90;;;;;;5095082;28;20027;-75
2022/11/26 04:36:52;;;;;;;47.80;11.20;;;6.50;99.90;;;;;;5094881;28;20403;-73
2022/11/26 04:39:18;;;;;;;54.28;12.52;;;6.50;99.90;;;;;;5094792;28;20397;-75
2022/11/26 04:41:43;;;;;;;61.47;12.95;;;6.50;99.90;;;;;;5095057;28;20058;-74
2022/11/26 04:44:10;;;;;;;53.67;12.35;;;6.50;99.90;;;;;;5094619;28;20541;-74
2022/11/26 04:46:36;;;;;;;44.65;12.23;;;6.50;99.90;;;;;;5093383;28;20023;-74
2022/11/26 04:49:01;;;;;;;39.53;11.15;;;6.30;99.90;;;;;;5091736;28;20396;-75
2022/11/26 04:51:27;;;;;;;50.20;12.70;;;6.30;99.90;;;;;;5094368;28;20020;-75
2022/11/26 04:53:53;;;;;;;39.58;11.40;;;6.30;99.90;;;;;;5094766;28;20172;-75
2022/11/26 04:56:19;;;;;;;40.42;11.85;;;6.30;99.90;;;;;;5094550;28;20039;-68
2022/11/26 04:58:45;;;;;;;35.83;10.27;;;6.40;99.90;;;;;;5094350;28;20101;-74
2022/11/26 05:01:11;;;;;;;55.90;10.90;;;6.50;99.90;;;;;;5094082;28;20016;-74
2022/11/26 05:03:36;;;;;;;36.63;11.77;;;6.40;99.90;;;;;;5094601;28;20032;-75
2022/11/26 05:06:03;;;;;;;36.45;11.48;;;6.30;99.90;;;;;;5094514;28;20097;-75
2022/11/26 05:08:29;;;;;;;56.95;11.70;;;6.30;99.90;;;;;;5094031;28;20491;-75
2022/11/26 05:10:54;;;;;;;46.70;11.75;;;6.30;99.90;;;;;;5094553;28;20027;-75
2022/11/26 05:13:21;;;;;;;41.42;11.15;;;6.10;99.90;;;;;;5094079;28;20043;-67
2022/11/26 05:15:47;;;;;;;37.47;10.60;;;6.10;99.90;;;;;;5094149;28;20024;-74
2022/11/26 05:18:13;;;;;;;43.25;12.68;;;6.10;99.90;;;;;;5093982;28;20365;-74
2022/11/26 05:20:38;;;;;;;35.90;10.65;;;6.10;99.90;;;;;;5094131;28;20020;-74
2022/11/26 05:23:04;;;;;;;54.90;13.27;;;6.00;99.90;;;;;;5094303;28;20070;-72
2022/11/26 05:25:30;;;;;;;43.08;11.10;;;6.10;99.90;;;;;;5094296;28;20127;-73
2022/11/26 05:27:56;;;;;;;47.67;12.07;;;6.10;99.90;;;;;;5094479;28;20028;-72
2022/11/26 05:30:21;;;;;;;45.45;11.43;;;6.30;99.90;;;;;;5093927;28;20027;-70
2022/11/26 05:32:47;;;;;;;44.53;11.60;;;6.30;99.90;;;;;;5093920;28;20047;-75
2022/11/26 05:35:13;;;;;;;47.45;11.50;;;6.20;99.90;;;;;;5092400;28;20060;-74
2022/11/26 05:37:39;;;;;;;46.17;12.32;;;6.20;99.90;;;;;;5092105;28;20047;-67
2022/11/26 05:40:06;;;;;;;36.20;10.55;;;6.20;99.90;;;;;;5093578;28;20366;-75
2022/11/26 05:42:31;;;;;;;40.53;9.93;;;6.30;99.90;;;;;;5092622;28;20048;-75
2022/11/26 05:44:57;;;;;;;41.83;11.77;;;6.30;99.90;;;;;;5093685;28;20083;-75
2022/11/26 05:47:23;;;;;;;37.22;11.80;;;6.40;99.90;;;;;;5093139;28;20024;-67
2022/11/26 05:49:48;;;;;;;48.63;9.50;;;6.00;99.90;;;;;;5093325;28;20042;-74
2022/11/26 05:52:14;;;;;;;47.58;11.43;;;5.80;99.90;;;;;;5093484;28;20020;-74
2022/11/26 05:54:40;;;;;;;41.65;11.75;;;5.80;99.90;;;;;;5093259;28;20063;-66
2022/11/26 05:57:06;;;;;;;44.90;12.00;;;5.80;99.90;;;;;;5092332;28;20059;-74
2022/11/26 05:59:32;;;;;;;43.03;10.35;;;5.90;99.90;;;;;;5092479;28;20050;-66
2022/11/26 06:01:58;;;;;;;35.88;12.82;;;5.80;99.90;;;;;;5093068;28;20055;-74
2022/11/26 06:04:24;;;;;;;54.13;12.00;;;5.80;99.90;;;;;;5093178;28;20056;-75
2022/11/26 06:06:49;;;;;;;68.40;20.60;;;5.90;99.90;;;;;;5092065;28;20024;-75
2022/11/26 06:09:16;;;;;;;44.22;10.38;;;6.10;99.90;;;;;;5093012;28;20032;-75
2022/11/26 06:11:42;;;;;;;42.00;10.30;;;6.20;99.90;;;;;;5093211;28;20039;-66
2022/11/26 06:14:09;;;;;;;35.08;9.82;;;6.20;99.90;;;;;;5092955;28;20028;-74
2022/11/26 06:16:35;;;;;;;223.10;55.97;;;6.20;99.90;;;;;;5093577;28;20031;-75
2022/11/26 06:19:01;;;;;;;43.97;14.35;;;6.30;99.90;;;;;;5092770;28;20389;-67
2022/11/26 06:21:27;;;;;;;71.20;26.20;;;6.30;99.90;;;;;;5093110;28;20020;-76
2022/11/26 06:23:53;;;;;;;40.22;9.77;;;6.40;99.90;;;;;;5092793;28;20038;-76
2022/11/26 06:26:18;;;;;;;52.70;12.32;;;6.40;99.90;;;;;;5093208;28;20110;-76
2022/11/26 06:28:44;;;;;;;46.45;14.63;;;6.40;99.90;;;;;;5092426;28;20396;-75
2022/11/26 06:31:10;;;;;;;38.97;8.70;;;6.40;99.90;;;;;;5093191;28;20024;-76
2022/11/26 06:33:36;;;;;;;33.85;9.23;;;6.50;99.90;;;;;;5092827;28;20024;-68
2022/11/26 06:36:04;;;;;;;33.28;8.75;;;6.50;99.90;;;;;;5092972;28;20020;-76
2022/11/26 06:38:30;;;;;;;34.97;8.63;;;6.40;99.90;;;;;;5092445;28;20048;-69
2022/11/26 06:41:02;;;;;;;42.22;7.72;;;6.50;99.90;;;;;;5092880;28;20070;-76
2022/11/26 06:43:28;;;;;;;;;;;6.50;99.90;;;;;;5093039;28;20201;-76
2022/11/26 06:45:54;;;;;;;41.33;8.30;;;6.40;99.90;;;;;;5092585;28;19904;-75
2022/11/26 06:48:24;;;;;;;46.13;8.57;;;6.50;99.90;;;;;;5092542;28;20055;-68
2022/11/26 06:50:51;;;;;;;36.63;9.23;;;6.30;99.90;;;;;;5091430;28;20039;-75
2022/11/26 06:53:17;;;;;;;39.80;8.82;;;6.60;99.90;;;;;;5092809;28;20074;-76
2022/11/26 06:55:43;;;;;;;54.80;9.30;;;6.30;99.90;;;;;;5096873;28;20031;-76
2022/11/26 06:58:09;;;;;;;41.08;9.50;;;6.50;99.90;;;;;;5096232;28;20391;-76
2022/11/26 07:00:35;;;;;;;47.70;9.80;;;6.50;99.90;;;;;;5096720;28;20024;-76
2022/11/26 07:03:01;;;;;;;49.40;8.82;;;6.70;99.90;;;;;;5096694;28;20120;-76
2022/11/26 07:05:27;;;;;;;40.95;9.05;;;6.70;99.90;;;;;;5096686;28;20016;-67
2022/11/26 07:07:53;;;;;;;34.47;7.88;;;6.80;99.90;;;;;;5090824;28;20032;-76
2022/11/26 07:10:19;;;;;;;42.25;8.95;;;6.80;99.90;;;;;;5082095;28;20024;-74
2022/11/26 07:12:45;;;;;;;43.45;9.60;;;6.90;99.90;;;;;;5075980;28;20526;-70
2022/11/26 07:15:11;;;;;;;39.13;10.77;;;6.90;99.90;;;;;;5077832;28;20079;-75
2022/11/26 07:17:37;;;;;;;44.88;10.07;;;6.80;99.90;;;;;;5080068;28;20488;-70
2022/11/26 07:20:03;;;;;;;36.60;10.00;;;6.70;99.90;;;;;;5090670;28;20061;-76
2022/11/26 07:22:29;;;;;;;35.65;9.57;;;6.80;99.90;;;;;;5082834;28;20063;-72
2022/11/26 07:24:55;;;;;;;35.72;8.95;;;6.70;99.90;;;;;;5079642;28;20060;-76
2022/11/26 07:27:21;;;;;;;49.60;9.90;;;6.80;99.90;;;;;;5078997;28;20107;-76
2022/11/26 07:29:46;;;;;;;49.47;9.52;;;6.70;99.90;;;;;;5092211;28;20024;-66
2022/11/26 07:32:12;;;;;;;28.80;8.38;;;6.80;99.90;;;;;;5087075;28;20456;-72
2022/11/26 07:34:38;;;;;;;31.42;8.98;;;6.60;99.90;;;;;;5074632;28;20021;-67
2022/11/26 07:37:03;;;;;;;34.58;8.85;;;6.60;99.90;;;;;;5074883;28;20127;-75
2022/11/26 07:39:29;;;;;;;42.97;9.30;;;6.70;99.90;;;;;;5077856;28;20044;-68
2022/11/26 07:41:55;;;;;;;40.20;9.57;;;6.80;99.90;;;;;;5088826;28;20017;-73
2022/11/26 07:44:20;;;;;;;33.40;9.18;;;6.90;99.90;;;;;;5085448;28;20487;-69
2022/11/26 07:46:46;;;;;;;50.22;10.05;;;6.90;99.90;;;;;;5079798;28;20040;-74
2022/11/26 07:49:12;;;;;;;36.97;9.88;;;6.80;99.90;;;;;;5077372;28;20028;-78
2022/11/26 07:51:38;;;;;;;34.00;9.00;;;6.70;99.90;;;;;;5079669;28;20020;-74
2022/11/26 07:54:05;;;;;;;39.65;9.25;;;6.70;99.90;;;;;;5081897;28;20016;-74
2022/11/26 07:56:32;;;;;;;34.05;9.18;;;6.80;99.90;;;;;;5081241;28;20461;-68
2022/11/26 07:58:58;;;;;;;39.72;8.43;;;6.80;99.90;;;;;;5078933;28;20135;-71
2022/11/26 08:01:31;;;;;;;33.80;9.40;;;6.80;99.90;;;;;;5078168;28;20103;-75
2022/11/26 08:03:58;;;;;;;39.30;9.93;;;6.80;99.90;;;;;;5074075;28;20036;-67
2022/11/26 08:06:27;;;;;;;35.33;9.55;;;6.90;99.90;;;;;;5081838;28;20020;-67
2022/11/26 08:08:53;;;;;;;30.55;8.93;;;6.90;99.90;;;;;;5079468;28;20061;-74
2022/11/26 08:11:27;;;;;;;37.67;8.82;;;6.90;99.90;;;;;;5094661;28;20567;-75
2022/11/26 08:14:02;;;;;;;38.15;9.05;;;7.10;99.90;;;;;;5094689;28;20047;-75
2022/11/26 08:16:28;;;;;;;36.05;9.27;;;7.20;99.90;;;;;;5093966;28;20181;-74
2022/11/26 08:18:59;;;;;;;35.13;9.20;;;7.00;99.90;;;;;;5074523;28;20112;-75
2022/11/26 08:21:26;;;;;;;42.58;9.43;;;7.10;99.90;;;;;;5084942;28;20057;-75
2022/11/26 08:23:53;;;;;;;44.38;10.40;;;7.20;99.90;;;;;;5074161;28;20032;-67
2022/11/26 08:26:20;;;;;;;34.70;9.18;;;7.20;99.90;;;;;;5071178;28;20029;-74
2022/11/26 08:28:46;;;;;;;40.95;10.20;;;7.20;99.90;;;;;;5084248;28;20033;-74
2022/11/26 08:31:14;;;;;;;40.28;9.30;;;7.30;99.90;;;;;;5078544;28;20020;-75
2022/11/26 08:33:40;;;;;;;32.70;8.85;;;7.20;99.90;;;;;;5071178;28;20040;-72
2022/11/26 08:36:08;;;;;;;35.90;9.65;;;7.40;99.90;;;;;;5077281;28;20012;-74
2022/11/26 08:38:34;;;;;;;33.03;10.50;;;7.30;99.90;;;;;;5073857;28;20108;-72
2022/11/26 08:41:00;;;;;;;37.05;9.20;;;7.40;99.90;;;;;;5077288;28;20575;-74
2022/11/26 08:43:26;;;;;;;38.83;10.70;;;7.70;99.90;;;;;;5067892;28;20058;-75
2022/11/26 08:45:54;;;;;;;36.58;9.02;;;7.60;99.90;;;;;;5064000;28;20111;-67
2022/11/26 08:48:21;;;;;;;38.30;8.57;;;7.40;99.90;;;;;;5055709;28;20017;-76
2022/11/26 08:50:47;;;;;;;47.72;9.55;;;7.50;99.90;;;;;;5053758;28;20025;-75
2022/11/26 08:53:13;;;;;;;32.67;9.52;;;7.60;99.90;;;;;;5070627;28;20086;-76
2022/11/26 08:55:39;;;;;;;31.60;8.57;;;7.80;99.90;;;;;;5069553;28;20025;-72
2022/11/26 08:58:05;;;;;;;37.63;8.98;;;7.90;99.90;;;;;;5069909;28;20033;-74
2022/11/26 09:00:30;;;;;;;39.25;9.02;;;8.00;99.90;;;;;;5055847;28;20041;-70
2022/11/26 09:02:56;;;;;;;35.55;8.57;;;8.00;99.90;;;;;;5063920;28;20033;-75
2022/11/26 09:05:22;;;;;;;36.17;8.73;;;8.10;99.90;;;;;;5059205;28;20021;-74
2022/11/26 09:07:47;;;;;;;33.92;8.90;;;8.00;99.90;;;;;;5063793;28;20032;-74
2022/11/26 09:10:14;;;;;;;35.42;8.15;;;8.00;99.90;;;;;;5089375;28;20036;-74
2022/11/26 09:12:41;;;;;;;34.08;8.32;;;8.00;99.90;;;;;;5093454;28;20035;-74
2022/11/26 09:15:08;;;;;;;34.38;8.20;;;8.00;99.90;;;;;;5093259;28;20012;-75
2022/11/26 09:17:34;;;;;;;29.63;8.13;;;8.00;99.90;;;;;;5085168;28;20432;-76
2022/11/26 09:19:59;;;;;;;39.88;8.60;;;7.90;99.90;;;;;;5064197;28;20039;-76
2022/11/26 09:22:25;;;;;;;29.90;8.23;;;8.10;99.90;;;;;;5062390;28;20024;-72
2022/11/26 09:24:51;;;;;;;33.95;8.57;;;8.20;99.90;;;;;;5060885;28;20529;-72
2022/11/26 09:27:16;;;;;;;33.55;8.95;;;8.20;99.90;;;;;;5061169;28;20020;-67
2022/11/26 09:29:42;;;;;;;36.03;8.73;;;8.40;99.90;;;;;;5072349;28;20052;-67
2022/11/26 09:32:08;;;;;;;34.22;9.75;;;8.60;99.90;;;;;;5069697;28;20028;-68
2022/11/26 09:34:35;;;;;;;31.73;7.93;;;8.50;99.90;;;;;;5061334;28;20037;-68
2022/11/26 09:37:01;;;;;;;33.28;7.80;;;8.70;99.90;;;;;;5057450;28;20041;-70
2022/11/26 09:39:27;;;;;;;39.83;8.27;;;8.90;99.90;;;;;;5061325;28;20039;-75
2022/11/26 09:42:11;;;;;;;28.00;8.65;;;8.90;99.90;;;;;;5070465;28;20028;-74
2022/11/26 09:45:03;;;;;;;37.67;9.07;;;8.90;99.90;;;;;;5065003;28;20359;-73
2022/11/26 09:47:37;;;;;;;;;;;9.00;99.90;;;;;;5063007;28;20031;-75
2022/11/26 09:50:15;;;;;;;33.85;7.72;;;9.10;99.90;;;;;;5068016;22;20369;-67
2022/11/26 09:52:56;;;;;;;33.22;7.40;;;9.20;99.90;;;;;;5038713;28;20106;-74
2022/11/26 09:55:33;;;;;;;30.85;7.38;;;9.30;99.90;;;;;;5074053;28;20154;-76
2022/11/26 09:58:15;;;;;;;32.13;7.53;;;9.20;99.90;;;;;;5076109;28;20032;-75
2022/11/26 10:00:50;;;;;;;32.03;8.60;;;9.40;99.90;;;;;;5094131;28;20082;-75
2022/11/26 10:03:19;;;;;;;25.70;7.38;;;9.60;99.90;;;;;;5102358;28;20369;-75
2022/11/26 10:06:09;;;;;;;33.78;8.00;;;9.90;99.90;;;;;;5094072;28;20388;-74
2022/11/26 10:08:59;;;;;;;33.13;6.75;;;10.10;99.90;;;;;;5066728;28;20809;-73
2022/11/26 10:11:46;;;;;;;26.42;7.78;;;10.10;99.90;;;;;;5092363;28;20023;-76
2022/11/26 10:14:39;;;;;;;34.33;7.30;;;10.70;99.90;;;;;;5069603;28;20055;-75
2022/11/26 10:17:42;;;;;;;29.02;6.55;;;11.10;99.90;;;;;;5083767;28;20036;-73
2022/11/26 10:20:20;;;;;;;20.35;6.13;;;11.30;99.90;;;;;;5086963;28;20093;-76
2022/11/26 10:22:56;;;;;;;27.60;6.90;;;11.50;99.90;;;;;;5073272;28;20032;-76
2022/11/26 10:25:26;;;;;;;35.70;7.10;;;11.60;99.90;;;;;;5073766;28;20572;-69
2022/11/26 10:27:57;;;;;;;26.52;7.20;;;11.30;99.90;;;;;;5056237;28;20480;-72
2022/11/26 10:30:26;;;;;;;22.45;6.38;;;11.30;99.90;;;;;;5078661;28;20025;-74
2022/11/26 10:32:54;;;;;;;28.88;5.75;;;10.90;99.90;;;;;;5079296;28;20028;-67
2022/11/26 10:35:22;;;;;;;31.77;6.45;;;10.60;99.90;;;;;;5084302;28;20024;-74
2022/11/26 10:37:49;;;;;;;28.40;6.22;;;10.60;99.90;;;;;;5077425;28;20370;-70
2022/11/26 10:40:27;;;;;;;27.90;6.60;;;11.00;99.90;;;;;;5077903;28;20098;-73
2022/11/26 10:43:07;;;;;;;37.25;8.10;;;11.40;99.90;;;;;;5076716;28;20036;-75
2022/11/26 10:45:35;;;;;;;35.17;6.95;;;11.40;99.90;;;;;;5082636;28;20037;-71
2022/11/26 10:48:32;;;;;;;20.52;5.13;;;11.30;99.90;;;;;;5084582;28;20037;-75
2022/11/26 10:51:12;;;;;;;27.75;7.35;;;11.20;99.90;;;;;;5069696;28;20039;-75
2022/11/26 10:53:53;;;;;;;31.17;6.22;;;11.00;99.90;;;;;;5083464;28;20028;-67
2022/11/26 10:56:22;;;;;;;25.77;6.30;;;11.10;99.90;;;;;;5070037;28;20047;-75
2022/11/26 10:58:50;;;;;;;22.35;4.95;;;11.30;99.90;;;;;;5088875;28;20338;-75
2022/11/26 11:01:16;;;;;;;27.88;6.38;;;11.00;99.90;;;;;;5078558;28;20032;-75
2022/11/26 11:03:54;;;;;;;27.73;6.53;;;11.00;99.90;;;;;;5092690;28;20084;-75
2022/11/26 11:06:20;;;;;;;24.27;6.43;;;11.00;99.90;;;;;;5088988;28;20035;-74
2022/11/26 11:08:48;;;;;;;30.45;7.10;;;11.50;99.90;;;;;;5076679;28;20020;-76
2022/11/26 11:11:28;;;;;;;23.08;5.47;;;12.10;99.90;;;;;;5100073;28;20380;-74
2022/11/26 11:13:54;;;;;;;18.67;5.82;;;12.20;99.90;;;;;;5091033;28;20087;-75
2022/11/26 11:16:29;;;;;;;32.92;6.55;;;12.70;99.90;;;;;;5081833;28;20075;-75
2022/11/26 11:18:57;;;;;;;14.88;4.93;;;13.10;99.90;;;;;;5087413;28;20088;-76
2022/11/26 11:21:29;;;;;;;28.40;5.75;;;13.30;99.90;;;;;;5086865;28;20038;-75
2022/11/26 11:24:22;;;;;;;26.85;5.80;;;12.90;99.90;;;;;;5082116;28;20035;-75
2022/11/26 11:26:48;;;;;;;;;;;12.60;99.90;;;;;;5075254;28;20438;-75
2022/11/26 11:29:32;;;;;;;34.63;6.07;;;11.90;99.90;;;;;;5068263;28;20365;-74
2022/11/26 11:32:00;;;;;;;17.58;5.07;;;11.80;99.90;;;;;;5085814;28;20064;-73
2022/11/26 11:34:36;;;;;;;22.90;5.97;;;12.10;99.90;;;;;;5078109;28;20028;-67
2022/11/26 11:37:11;;;;;;;23.88;5.65;;;12.10;99.90;;;;;;5078983;28;20020;-75
2022/11/26 11:39:37;;;;;;;25.08;6.13;;;12.10;99.90;;;;;;5088764;28;20063;-73
2022/11/26 11:42:06;;;;;;;21.65;5.78;;;12.00;99.90;;;;;;5088105;28;20130;-66
2022/11/26 11:44:47;;;;;;;26.25;6.28;;;11.80;99.90;;;;;;5087559;28;20028;-75
2022/11/26 11:47:34;;;;;;;17.55;5.25;;;11.80;99.90;;;;;;5100924;28;20032;-74
2022/11/26 11:50:12;;;;;;;21.00;6.25;;;12.10;99.90;;;;;;5060662;28;20761;-69
2022/11/26 11:52:47;;;;;;;24.40;6.18;;;11.80;99.90;;;;;;5101878;28;20020;-67
2022/11/26 11:55:31;;;;;;;35.03;6.97;;;12.00;99.90;;;;;;5103344;28;20093;-75
2022/11/26 11:58:28;;;;;;;23.10;6.60;;;11.80;99.90;;;;;;5094493;28;20117;-73
2022/11/26 12:01:27;;;;;;;22.38;6.60;;;11.70;99.90;;;;;;5075178;28;20511;-74
2022/11/26 12:04:35;;;;;;;34.08;7.43;;;11.60;99.90;;;;;;5085079;28;20039;-75
2022/11/26 12:07:26;;;;;;;22.70;7.53;;;11.70;99.90;;;;;;5043595;28;20044;-74
2022/11/26 12:09:58;;;;;;;30.33;6.28;;;12.10;99.90;;;;;;5095066;28;20051;-68
2022/11/26 12:12:30;;;;;;;21.90;6.50;;;12.40;99.90;;;;;;5081078;28;20031;-74
2022/11/26 12:15:04;;;;;;;;;;;12.90;99.90;;;;;;5095535;28;20086;-74
2022/11/26 12:17:47;;;;;;;26.60;6.75;;;13.20;99.90;;;;;;5094850;28;19908;-79
2022/11/26 12:20:22;;;;;;;27.55;6.65;;;12.70;99.90;;;;;;5093904;28;20067;-72
2022/11/26 12:22:58;;;;;;;25.80;6.68;;;12.40;99.90;;;;;;5094536;28;20110;-72
2022/11/26 12:25:32;;;;;;;20.15;6.43;;;12.60;99.90;;;;;;5094452;28;20032;-71
2022/11/26 12:28:11;;;;;;;19.60;4.75;;;13.10;99.90;;;;;;5094996;28;20024;-72
2022/11/26 12:31:09;;;;;;;27.08;5.55;;;13.70;99.90;;;;;;5073567;28;20021;-72
2022/11/26 12:33:42;;;;;;;23.27;4.78;;;14.30;99.90;;;;;;5087161;28;20044;-74
2022/11/26 12:36:41;;;;;;;21.42;4.85;;;14.60;99.90;;;;;;5093078;28;20464;-73
2022/11/26 12:39:18;;;;;;;22.40;5.72;;;14.30;99.90;;;;;;5094564;28;20024;-73
2022/11/26 12:42:16;;;;;;;17.73;4.60;;;14.60;99.90;;;;;;5095340;28;20032;-73
2022/11/26 12:44:50;;;;;;;23.88;4.97;;;14.00;99.90;;;;;;5063302;28;20078;-73
2022/11/26 12:47:24;;;;;;;22.15;5.95;;;14.40;99.90;;;;;;5094327;28;20066;-73
2022/11/26 12:50:02;;;;;;;21.83;5.22;;;14.60;99.90;;;;;;5094437;28;20024;-73
2022/11/26 12:52:48;;;;;;;20.20;5.75;;;15.10;99.90;;;;;;5075728;28;20442;-70
2022/11/26 12:55:22;;;;;;;24.90;5.57;;;14.30;99.90;;;;;;5094594;28;20491;-73
2022/11/26 12:57:49;;;;;;;17.67;4.50;;;14.50;99.90;;;;;;5093997;28;20085;-67